Datchet, United Kingdom
Current Conditions -  °F | °C
As of 7:50 PM on Tuesday 21 Oct 2014 (Local Time) from EGLL Reporting Station
Few Clouds Few Clouds  
Wind Chill: 42°   Ceiling: Unl
Heat Index: 48°   Visibility: 6mi
Dew Point: 37°   Wind: 17mph
Humidity: 66%   Direction: 280°W
Pressure: 30"   Gusts: NA
Location:  51.48°N, 0.58°W
Report Text: EGLL 211850Z 28015KT 9999 FEW049 09/03 Q1016
Loading
Personal Weather Stations






























Interactive Weather Map
Tropical Storm Tracking
New forecast layout! Learn more

10-Day Weather Forecast

Advertisements
Track Severe Weather on mobile